Time;durP1;ratioP1;P1;durP2;ratioP2;P2;SDS_P1;SDS_P2;PMS_P1;PMS_P2;Temp;Humidity;BMP_temperature;BMP_pressure;BME280_temperature;BME280_humidity;BME280_pressure;Samples;Min_cycle;Max_cycle;Signal;HPM_P1;HPM_P2
2023/03/13 00:02:23;;;;;;;7.83;2.73;;;8.10;99.90;;;8.69;100.00;97432.16;5019191;28;20931;-76
2023/03/13 00:04:55;;;;;;;16.37;2.87;;;8.10;99.90;;;8.72;100.00;97421.34;5017488;28;20466;-76
2023/03/13 00:07:25;;;;;;;7.93;2.73;;;8.20;99.90;;;8.73;100.00;97420.38;5018821;28;20466;-76
2023/03/13 00:09:54;;;;;;;14.77;3.07;;;8.10;99.90;;;8.75;100.00;97415.75;5018201;28;20467;-76
2023/03/13 00:12:24;;;;;;;7.73;2.47;;;8.10;99.90;;;8.77;100.00;97419.81;5018789;28;20466;-76
2023/03/13 00:14:54;;;;;;;14.13;4.03;;;8.20;99.90;;;8.82;100.00;97411.41;5018545;28;20466;-76
2023/03/13 00:17:23;;;;;;;13.33;3.10;;;8.30;99.90;;;8.84;100.00;97404.19;5021855;28;20486;-76
2023/03/13 00:19:54;;;;;;;17.47;4.40;;;8.30;99.90;;;8.90;100.00;97406.03;5016090;28;20462;-76
2023/03/13 00:22:24;;;;;;;7.87;3.17;;;8.40;99.90;;;8.94;100.00;97409.88;5019751;28;21544;-76
2023/03/13 00:24:54;;;;;;;12.33;2.60;;;8.50;99.90;;;8.95;100.00;97395.84;5018831;28;20553;-76
2023/03/13 00:27:23;;;;;;;13.90;2.60;;;8.40;99.90;;;8.97;100.00;97392.03;5018025;28;20815;-76
2023/03/13 00:29:52;;;;;;;14.67;2.83;;;8.40;99.90;;;8.97;100.00;97391.22;5017288;28;21077;-76
2023/03/13 00:32:23;;;;;;;10.30;2.37;;;8.40;99.90;;;8.99;100.00;97392.63;5015104;28;20470;-76
2023/03/13 00:34:55;;;;;;;8.20;2.07;;;8.40;99.90;;;8.97;100.00;97375.59;5016951;28;20473;-77
2023/03/13 00:37:24;;;;;;;11.13;2.90;;;8.40;99.90;;;8.97;100.00;97375.59;5018890;28;20485;-76
2023/03/13 00:39:54;;;;;;;17.33;3.00;;;8.30;99.90;;;9.00;100.00;97377.81;5017121;28;20553;-76
2023/03/13 00:42:24;;;;;;;10.30;2.10;;;8.50;99.90;;;9.01;100.00;97374.22;5016773;28;21395;-76
2023/03/13 00:44:54;;;;;;;8.13;2.73;;;8.40;99.90;;;9.05;100.00;97367.63;5017194;28;22935;-76
2023/03/13 00:47:25;;;;;;;10.53;2.50;;;8.50;99.90;;;9.06;100.00;97361.38;5020729;28;20463;-76
2023/03/13 00:49:56;;;;;;;7.77;2.50;;;8.50;99.90;;;9.06;100.00;97364.78;5017253;28;20470;-76
2023/03/13 00:52:27;;;;;;;6.63;2.60;;;8.50;99.90;;;9.07;100.00;97366.41;5017110;28;20493;-76
2023/03/13 00:54:56;;;;;;;10.90;2.13;;;8.50;99.90;;;9.07;100.00;97357.78;5017566;28;20467;-76
2023/03/13 00:57:26;;;;;;;12.60;2.53;;;8.50;99.90;;;9.12;100.00;97355.41;5018572;28;20468;-76
2023/03/13 00:59:55;;;;;;;10.60;2.17;;;8.50;99.90;;;9.14;100.00;97356.00;5019198;28;20493;-76
2023/03/13 01:02:24;;;;;;;7.50;2.40;;;8.60;99.90;;;9.17;100.00;97347.78;5017242;28;20530;-76
2023/03/13 01:04:56;;;;;;;8.80;2.67;;;8.70;99.90;;;9.18;100.00;97353.81;5017432;28;20472;-77
2023/03/13 01:07:29;;;;;;;5.10;2.40;;;8.70;99.90;;;9.19;100.00;97350.22;5016349;28;20493;-76
2023/03/13 01:10:00;;;;;;;9.27;2.60;;;8.70;99.90;;;9.18;100.00;97349.41;5017430;28;21027;-77
2023/03/13 01:12:30;;;;;;;5.07;1.90;;;8.60;99.90;;;9.20;100.00;97344.78;5018336;28;20988;-76
2023/03/13 01:14:59;;;;;;;7.40;2.10;;;8.70;99.90;;;9.23;100.00;97341.00;5016713;28;20471;-76
2023/03/13 01:17:30;;;;;;;14.63;2.70;;;8.70;99.90;;;9.25;100.00;97339.00;5017997;28;20588;-76
2023/03/13 01:20:02;;;;;;;11.23;2.87;;;8.80;99.90;;;9.24;100.00;97340.78;5019165;28;20952;-76
2023/03/13 01:22:31;;;;;;;8.10;3.00;;;8.80;99.90;;;9.22;100.00;97334.16;5019954;28;20506;-76
2023/03/13 01:25:00;;;;;;;7.23;2.60;;;8.70;99.90;;;9.24;100.00;97327.75;5018687;28;20467;-76
2023/03/13 01:27:30;;;;;;;8.73;2.67;;;8.80;99.90;;;9.26;100.00;97330.19;5018364;28;20470;-77
2023/03/13 01:30:01;;;;;;;8.67;2.10;;;8.80;99.90;;;9.24;100.00;97327.75;5016094;28;20571;-76
2023/03/13 01:32:34;;;;;;;16.53;2.97;;;8.80;99.90;;;9.23;100.00;97322.75;5017509;28;20485;-76
2023/03/13 01:35:05;;;;;;;14.80;3.00;;;8.80;99.90;;;9.25;100.00;97318.13;5017192;28;20469;-76
2023/03/13 01:37:35;;;;;;;11.00;2.63;;;8.80;99.90;;;9.23;100.00;97315.72;5017764;28;21007;-76
2023/03/13 01:40:07;;;;;;;10.03;2.50;;;8.70;99.90;;;9.26;100.00;97312.72;5018636;28;20507;-77
2023/03/13 01:42:55;;;;;;;8.27;2.20;;;8.80;99.90;;;9.26;100.00;97299.69;5018027;28;21016;-76
2023/03/13 01:45:57;;;;;;;8.43;2.40;;;8.80;99.90;;;9.26;100.00;97294.47;5015645;28;20528;-76
2023/03/13 01:48:58;;;;;;;7.87;2.10;;;8.80;99.90;;;9.21;100.00;97296.84;5020144;28;20466;-76
2023/03/13 01:51:35;;;;;;;14.27;2.20;;;8.70;99.90;;;9.22;100.00;97288.03;5017925;28;20473;-76
2023/03/13 01:54:11;;;;;;;7.43;2.37;;;8.70;99.90;;;9.22;100.00;97288.03;5019301;28;20556;-77
2023/03/13 01:56:50;;;;;;;17.50;3.00;;;8.70;99.90;;;9.22;100.00;97269.75;5018364;28;20497;-76
2023/03/13 01:59:26;;;;;;;5.80;2.20;;;8.80;99.90;;;9.24;100.00;97270.34;5019062;28;20481;-76
2023/03/13 02:02:01;;;;;;;6.67;1.80;;;8.80;99.90;;;9.22;100.00;97263.75;5017256;28;20873;-76
2023/03/13 02:04:38;;;;;;;6.77;2.07;;;8.70;99.90;;;9.19;100.00;97257.13;5015146;28;20493;-77
2023/03/13 02:07:16;;;;;;;4.63;2.17;;;8.70;99.90;;;9.20;100.00;97253.50;5017120;28;20543;-77
2023/03/13 02:09:52;;;;;;;6.47;2.10;;;8.70;99.90;;;9.19;100.00;97251.91;5014992;28;20910;-77
2023/03/13 02:12:30;;;;;;;14.57;2.57;;;8.70;99.90;;;9.19;100.00;97245.88;5014474;28;20520;-76
2023/03/13 02:15:04;;;;;;;10.83;3.10;;;8.70;99.90;;;9.19;100.00;97240.66;5016126;28;20470;-77
2023/03/13 02:17:36;;;;;;;10.53;2.27;;;8.60;99.90;;;9.21;100.00;97241.25;5016601;28;20561;-76
2023/03/13 02:20:07;;;;;;;6.87;2.83;;;8.70;99.90;;;9.20;100.00;97235.22;5018856;28;20466;-77
2023/03/13 02:22:48;;;;;;;7.13;1.93;;;8.70;99.90;;;9.20;100.00;97237.84;5015458;28;20517;-76
2023/03/13 02:25:34;;;;;;;7.83;2.13;;;8.70;99.90;;;9.21;100.00;97215.16;5015140;28;20517;-77
2023/03/13 02:28:11;;;;;;;8.93;2.30;;;8.70;99.90;;;9.20;100.00;97216.97;5014832;28;20875;-77
2023/03/13 02:30:44;;;;;;;12.63;2.40;;;8.70;99.90;;;9.20;100.00;97206.53;5016211;28;21006;-76
2023/03/13 02:33:15;;;;;;;7.80;2.20;;;8.70;99.90;;;9.19;100.00;97204.97;5016878;28;20497;-77
2023/03/13 02:35:46;;;;;;;7.67;2.00;;;8.60;99.90;;;9.20;100.00;97211.75;5014265;28;20473;-77
2023/03/13 02:38:24;;;;;;;5.97;2.20;;;8.70;99.90;;;9.21;100.00;97195.13;5016335;28;20461;-76
2023/03/13 02:40:56;;;;;;;7.40;2.00;;;8.70;99.90;;;9.21;100.00;97202.94;5016213;28;20548;-77
2023/03/13 02:43:31;;;;;;;5.10;1.87;;;8.70;99.90;;;9.20;100.00;97197.94;5015265;28;20506;-77
2023/03/13 02:46:09;;;;;;;3.50;1.87;;;8.70;99.90;;;9.19;100.00;97184.09;5014835;28;20463;-77
2023/03/13 02:48:43;;;;;;;3.47;1.50;;;8.70;99.90;;;9.22;100.00;97183.69;5016665;28;20488;-76
2023/03/13 02:51:22;;;;;;;5.97;1.50;;;8.70;99.90;;;9.24;100.00;97184.28;5016593;28;20557;-77
2023/03/13 02:53:56;;;;;;;5.13;1.30;;;8.80;99.90;;;9.23;100.00;97174.06;5017111;28;20480;-77
2023/03/13 02:56:33;;;;;;;6.17;1.23;;;8.80;99.90;;;9.26;100.00;97174.47;5015994;28;20508;-76
2023/03/13 02:59:02;;;;;;;2.90;1.40;;;8.80;99.90;;;9.27;100.00;97170.03;5015407;28;20457;-76
2023/03/13 03:01:32;;;;;;;1.23;1.13;;;8.80;99.90;;;9.29;100.00;97163.63;5014656;28;20546;-76
2023/03/13 03:04:01;;;;;;;1.87;1.10;;;8.90;99.90;;;9.27;100.00;97168.22;5016491;28;21300;-76
2023/03/13 03:06:31;;;;;;;2.67;1.30;;;8.80;99.90;;;9.29;100.00;97162.81;5018647;28;20834;-76
2023/03/13 03:09:01;;;;;;;2.97;1.10;;;8.80;99.90;;;9.30;100.00;97165.22;5016896;28;20465;-77
2023/03/13 03:11:33;;;;;;;1.30;1.20;;;8.90;99.90;;;9.33;100.00;97157.00;5016491;28;20471;-77
2023/03/13 03:14:03;;;;;;;2.47;1.00;;;8.90;99.90;;;9.34;100.00;97157.78;5014437;28;20481;-77
2023/03/13 03:16:33;;;;;;;1.30;1.10;;;8.80;99.90;;;9.34;100.00;97161.19;5017657;28;20573;-76
2023/03/13 03:19:03;;;;;;;1.00;1.00;;;8.90;99.90;;;9.35;100.00;97157.59;5018668;28;20874;-76
2023/03/13 03:21:33;;;;;;;1.43;1.07;;;8.90;99.90;;;9.37;100.00;97150.34;5015985;28;20559;-76
2023/03/13 03:24:03;;;;;;;0.93;0.87;;;8.90;99.90;;;9.41;100.00;97151.56;5017465;28;20977;-76
2023/03/13 03:26:34;;;;;;;0.80;0.80;;;8.90;99.90;;;9.45;100.00;97160.59;5017803;28;20565;-76
2023/03/13 03:29:06;;;;;;;0.90;0.80;;;9.00;99.90;;;9.50;100.00;97134.72;5018001;28;20488;-77
2023/03/13 03:31:36;;;;;;;0.90;0.87;;;9.10;99.90;;;9.50;100.00;97139.94;5017224;28;21039;-76
2023/03/13 03:34:05;;;;;;;1.70;1.27;;;9.10;99.90;;;9.57;100.00;97138.13;5017355;28;20466;-76
2023/03/13 03:36:35;;;;;;;0.90;0.90;;;9.10;99.90;;;9.59;100.00;97133.50;5016133;28;20512;-77
2023/03/13 03:39:05;;;;;;;1.20;1.10;;;9.20;99.90;;;9.60;100.00;97127.28;5016860;28;20466;-76
2023/03/13 03:41:38;;;;;;;1.33;1.00;;;9.20;99.90;;;9.64;100.00;97127.69;5016830;28;20474;-76
2023/03/13 03:44:07;;;;;;;1.73;1.23;;;9.20;99.90;;;9.63;100.00;97143.53;5016030;28;20584;-76
2023/03/13 03:46:38;;;;;;;1.27;1.17;;;9.20;99.90;;;9.64;100.00;97138.13;5016074;28;21151;-77
2023/03/13 03:49:07;;;;;;;2.27;1.20;;;9.20;99.90;;;9.66;100.00;97137.91;5019482;28;20491;-76
2023/03/13 03:51:38;;;;;;;3.13;1.40;;;9.20;99.90;;;9.69;100.00;97130.47;5021976;28;20468;-76
2023/03/13 03:54:08;;;;;;;1.97;1.73;;;9.30;99.90;;;9.70;100.00;97120.81;5019281;28;20473;-76
2023/03/13 03:56:40;;;;;;;1.93;1.73;;;9.30;99.90;;;9.71;100.00;97125.03;5021262;28;20463;-76
2023/03/13 03:59:09;;;;;;;1.60;1.50;;;9.30;99.90;;;9.72;100.00;97116.22;5019442;28;21027;-76
2023/03/13 04:01:39;;;;;;;1.90;1.80;;;9.30;99.90;;;9.77;100.00;97126.84;5018175;28;20534;-76
2023/03/13 04:04:08;;;;;;;2.03;1.83;;;9.30;99.90;;;9.81;100.00;97151.53;5017542;28;20498;-76
2023/03/13 04:06:38;;;;;;;1.90;1.70;;;9.40;99.90;;;9.86;100.00;97143.88;5018167;28;20893;-76
2023/03/13 04:09:07;;;;;;;3.97;2.87;;;9.50;99.90;;;9.85;100.00;97142.28;5016865;28;20533;-75
2023/03/13 04:11:39;;;;;;;22.07;11.43;;;9.40;99.90;;;9.86;100.00;97143.88;5016740;28;20477;-77
2023/03/13 04:14:08;;;;;;;3.07;2.77;;;9.40;99.90;;;9.89;100.00;97133.03;5016590;28;21008;-77
2023/03/13 04:16:39;;;;;;;8.17;4.87;;;9.40;99.90;;;9.89;100.00;97127.81;5019018;28;20491;-77
2023/03/13 04:19:10;;;;;;;2.60;2.40;;;9.40;99.90;;;9.93;100.00;97139.44;5018068;28;20465;-76
2023/03/13 04:21:39;;;;;;;2.73;2.10;;;9.50;99.90;;;9.92;100.00;97145.69;5019157;28;20466;-76
2023/03/13 04:24:08;;;;;;;2.17;2.07;;;9.50;99.90;;;9.93;100.00;97144.66;5016559;28;20490;-76
2023/03/13 04:26:38;;;;;;;17.20;9.00;;;9.40;99.90;;;9.96;100.00;97144.28;5018831;28;20462;-76
2023/03/13 04:29:09;;;;;;;3.37;1.90;;;9.50;99.90;;;9.97;100.00;97145.88;5018039;28;20497;-76
2023/03/13 04:31:38;;;;;;;2.30;2.10;;;9.50;99.90;;;10.00;100.00;97145.44;5018521;28;20487;-76
2023/03/13 04:34:08;;;;;;;4.00;2.80;;;9.50;99.90;;;10.02;100.00;97148.66;5018082;28;20555;-76
2023/03/13 04:36:37;;;;;;;3.20;2.80;;;9.60;99.90;;;10.01;100.00;97139.22;5018898;28;20997;-76
2023/03/13 04:39:08;;;;;;;2.70;2.50;;;9.50;99.90;;;10.01;100.00;97142.66;5017082;28;20982;-76
2023/03/13 04:41:39;;;;;;;2.80;2.60;;;9.50;99.90;;;10.04;100.00;97149.25;5016477;28;20498;-76
2023/03/13 04:44:09;;;;;;;5.40;3.20;;;9.60;99.90;;;10.05;100.00;97137.81;5018013;28;20576;-76
2023/03/13 04:46:39;;;;;;;3.37;3.07;;;9.60;99.90;;;10.06;100.00;97145.44;5016750;28;20548;-76
2023/03/13 04:49:08;;;;;;;28.03;14.63;;;9.50;99.90;;;10.08;100.00;97129.56;5016529;28;20488;-76
2023/03/13 04:51:39;;;;;;;4.20;3.40;;;9.60;99.90;;;10.10;100.00;97124.91;5018492;28;20489;-76
2023/03/13 04:54:08;;;;;;;7.93;3.90;;;9.60;99.90;;;10.11;100.00;97110.84;5019429;28;20980;-76
2023/03/13 04:56:39;;;;;;;4.50;4.10;;;9.60;99.90;;;10.13;100.00;97108.84;5019669;28;20928;-76
2023/03/13 04:59:13;;;;;;;4.20;3.73;;;9.60;99.90;;;10.16;100.00;97110.28;5019417;28;20568;-76
2023/03/13 05:01:43;;;;;;;4.93;3.50;;;9.70;99.90;;;10.16;100.00;97102.44;5017981;28;20477;-76
2023/03/13 05:04:13;;;;;;;4.40;3.40;;;9.70;99.90;;;10.17;100.00;97089.16;5022812;28;20501;-76
2023/03/13 05:06:42;;;;;;;3.43;3.13;;;9.70;99.90;;;10.20;100.00;97093.19;5026358;28;20482;-76
2023/03/13 05:09:12;;;;;;;3.67;2.97;;;9.70;99.90;;;10.19;100.00;97092.38;5025952;28;20470;-76
2023/03/13 05:11:44;;;;;;;3.43;2.90;;;9.70;99.90;;;10.21;100.00;97095.56;5018361;28;20859;-76
2023/03/13 05:14:14;;;;;;;3.93;3.00;;;9.80;99.90;;;10.21;100.00;97107.81;5019204;28;20464;-76
2023/03/13 05:16:44;;;;;;;3.30;2.73;;;9.60;99.90;;;10.24;100.00;97104.81;5017020;28;20489;-76
2023/03/13 05:19:14;;;;;;;3.20;2.90;;;9.80;99.90;;;10.23;100.00;97105.81;5015839;28;20494;-76
2023/03/13 05:21:44;;;;;;;2.83;2.53;;;9.70;99.90;;;10.24;100.00;97104.81;5020548;28;20469;-77
2023/03/13 05:24:14;;;;;;;2.57;2.37;;;9.70;99.90;;;10.27;100.00;97089.53;5018119;28;21298;-76
2023/03/13 05:26:46;;;;;;;231.37;125.23;;;9.80;99.90;;;10.26;100.00;97080.09;5016914;28;20466;-73
2023/03/13 05:29:15;;;;;;;18.67;9.83;;;9.80;99.90;;;10.27;100.00;97084.31;5017952;28;20470;-76
2023/03/13 05:31:44;;;;;;;5.90;4.10;;;9.80;99.90;;;10.27;100.00;97092.16;5013517;28;20475;-76
2023/03/13 05:34:14;;;;;;;3.70;3.23;;;9.70;99.90;;;10.29;100.00;97097.97;5017438;28;20770;-76
2023/03/13 05:36:43;;;;;;;3.20;2.60;;;9.80;99.90;;;10.30;100.00;97099.56;5017526;28;20551;-76
2023/03/13 05:39:13;;;;;;;3.83;2.60;;;9.80;99.90;;;10.30;100.00;97091.72;5019820;28;20459;-76
2023/03/13 05:41:44;;;;;;;2.23;2.03;;;9.80;99.90;;;10.35;100.00;97097.13;5016923;28;21049;-76
2023/03/13 05:44:14;;;;;;;5.10;2.80;;;9.90;99.90;;;10.35;100.00;97080.63;5018894;28;20501;-76
2023/03/13 05:46:44;;;;;;;2.40;2.20;;;9.90;99.90;;;10.43;100.00;97068.13;5026227;28;20559;-76
2023/03/13 05:49:14;;;;;;;2.30;2.10;;;10.00;99.90;;;10.43;100.00;97081.19;5024127;28;20466;-76
2023/03/13 05:51:44;;;;;;;2.33;2.13;;;10.00;99.90;;;10.46;100.00;97067.72;5015076;28;20480;-76
2023/03/13 05:54:14;;;;;;;46.50;28.73;;;10.00;99.90;;;10.50;100.00;97063.66;5015775;28;20570;-74
2023/03/13 05:56:47;;;;;;;11.53;6.40;;;10.00;99.90;;;10.53;100.00;97070.28;5015885;28;20548;-76
2023/03/13 05:59:18;;;;;;;2.87;2.67;;;10.10;99.90;;;10.58;100.00;97062.63;5016344;28;20505;-76
2023/03/13 06:01:47;;;;;;;3.20;2.90;;;10.20;99.90;;;10.59;100.00;97058.97;5015568;28;20467;-76
2023/03/13 06:04:16;;;;;;;4.83;2.77;;;10.10;99.90;;;10.60;100.00;97058.78;5016242;28;20498;-77
2023/03/13 06:06:46;;;;;;;3.30;3.00;;;10.10;99.90;;;10.67;100.00;97052.69;5018531;28;20462;-77
2023/03/13 06:09:16;;;;;;;3.37;2.60;;;10.20;99.90;;;10.70;100.00;97063.53;5018007;28;20933;-77
2023/03/13 06:11:46;;;;;;;3.57;3.27;;;10.30;99.90;;;10.75;100.00;97055.06;5019505;28;20466;-77
2023/03/13 06:14:15;;;;;;;3.03;2.83;;;10.30;99.90;;;10.77;100.00;97063.47;5020809;28;20501;-77
2023/03/13 06:16:44;;;;;;;8.60;3.40;;;10.30;99.90;;;10.78;100.00;97046.78;5018710;28;20489;-77
2023/03/13 06:19:14;;;;;;;2.50;2.30;;;10.30;99.90;;;10.81;100.00;97038.50;5018838;28;20560;-77
2023/03/13 06:21:44;;;;;;;2.53;2.33;;;10.40;99.90;;;10.80;100.00;97029.06;5018773;28;20495;-77
2023/03/13 06:24:13;;;;;;;3.13;2.53;;;10.40;99.90;;;10.86;100.00;97047.34;5019501;28;20518;-77
2023/03/13 06:26:42;;;;;;;3.03;2.17;;;10.50;99.90;;;10.88;100.00;97045.31;5026523;28;20968;-77
2023/03/13 06:29:13;;;;;;;8.20;2.53;;;10.40;99.90;;;10.90;100.00;97052.91;5023587;28;20944;-77
2023/03/13 06:31:43;;;;;;;2.30;2.00;;;10.40;99.90;;;10.93;100.00;97040.22;5023709;28;20469;-77
2023/03/13 06:34:15;;;;;;;3.37;1.80;;;10.50;99.90;;;10.96;100.00;97034.56;5019229;28;20545;-77
2023/03/13 06:36:45;;;;;;;2.90;1.97;;;10.50;99.90;;;10.97;100.00;97041.38;5017357;28;20470;-77
2023/03/13 06:39:15;;;;;;;3.40;1.87;;;10.50;99.90;;;11.00;100.00;97033.09;5018786;28;21045;-77
2023/03/13 06:41:45;;;;;;;1.97;1.70;;;10.60;99.90;;;11.05;100.00;97035.91;5019146;28;20459;-77
2023/03/13 06:44:17;;;;;;;1.60;1.50;;;10.70;99.90;;;11.07;100.00;97023.38;5018909;28;20497;-77
2023/03/13 06:46:46;;;;;;;2.33;1.90;;;10.70;99.90;;;11.08;100.00;97034.66;5018127;28;20542;-77
2023/03/13 06:49:17;;;;;;;2.03;1.80;;;10.70;99.90;;;11.10;100.00;97032.66;5019505;28;20546;-77
2023/03/13 06:51:46;;;;;;;4.47;1.90;;;10.70;99.90;;;11.13;100.00;97020.94;5018208;28;20899;-77
2023/03/13 06:54:16;;;;;;;10.30;1.80;;;10.70;99.90;;;11.13;100.00;97045.28;5019751;28;20957;-77
2023/03/13 06:56:46;;;;;;;2.20;2.00;;;10.70;99.90;;;11.18;100.00;97029.72;5019548;28;20839;-77
2023/03/13 06:59:19;;;;;;;2.57;1.80;;;10.80;99.90;;;11.20;100.00;97032.97;5019496;28;20485;-77
2023/03/13 07:01:50;;;;;;;4.13;2.00;;;10.80;99.90;;;11.23;100.00;97022.06;5020221;28;20498;-77
2023/03/13 07:04:20;;;;;;;5.13;1.50;;;10.80;99.90;;;11.25;100.00;97032.28;5018570;28;20569;-77
2023/03/13 07:06:51;;;;;;;3.50;2.20;;;10.80;99.90;;;11.26;100.00;97029.47;5017674;28;20459;-77
2023/03/13 07:09:21;;;;;;;4.17;1.73;;;10.80;99.90;;;11.29;100.00;97047.34;5025232;28;20465;-77
2023/03/13 07:11:50;;;;;;;2.93;1.90;;;10.90;99.90;;;11.29;100.00;97030.84;5027964;28;21416;-77
2023/03/13 07:14:20;;;;;;;2.47;1.80;;;10.90;99.90;;;11.32;100.00;97046.91;5029040;28;20500;-77
2023/03/13 07:16:51;;;;;;;3.80;1.80;;;10.90;99.90;;;11.33;100.00;97045.91;5029082;28;20563;-77
2023/03/13 07:19:25;;;;;;;4.57;1.57;;;10.90;99.90;;;11.36;100.00;97040.25;5019979;28;20470;-77
2023/03/13 07:21:55;;;;;;;3.47;1.77;;;11.00;99.90;;;11.37;100.00;97018.28;5020897;28;20457;-77
2023/03/13 07:24:25;;;;;;;2.07;1.77;;;11.00;99.90;;;11.40;100.00;97014.44;5022702;28;21035;-77
2023/03/13 07:26:55;;;;;;;3.90;1.60;;;11.00;99.90;;;11.39;100.00;97024.09;5023024;28;20463;-77
2023/03/13 07:29:36;;;;;;;1.73;1.57;;;11.00;99.90;;;11.40;100.00;97023.09;5022281;28;20608;-77
2023/03/13 07:32:06;;;;;;;1.97;1.70;;;11.00;99.90;;;11.39;100.00;97011.00;5022399;28;20517;-76
2023/03/13 07:34:37;;;;;;;9.03;2.50;;;11.00;99.90;;;11.42;100.00;97015.03;5022421;28;20512;-77
2023/03/13 07:37:07;;;;;;;2.80;2.33;;;11.00;99.90;;;11.44;100.00;97015.59;5022309;28;20509;-77
2023/03/13 07:39:37;;;;;;;4.10;2.00;;;11.00;99.90;;;11.45;100.00;97017.97;5020777;28;20475;-77
2023/03/13 07:42:07;;;;;;;1.87;1.63;;;11.10;99.90;;;11.46;100.00;97009.13;5023165;28;20549;-77
2023/03/13 07:44:39;;;;;;;3.97;1.77;;;11.00;99.90;;;11.49;100.00;97011.28;5022658;28;20497;-77
2023/03/13 07:47:09;;;;;;;3.33;1.57;;;11.10;99.90;;;11.52;100.00;97026.56;5021700;28;20454;-75
2023/03/13 07:49:42;;;;;;;2.70;2.00;;;11.10;99.90;;;11.51;100.00;97011.91;5021548;28;20803;-77
2023/03/13 07:52:12;;;;;;;2.30;1.50;;;11.10;99.90;;;11.54;100.00;97019.31;5021744;28;20461;-77
2023/03/13 07:54:41;;;;;;;1.73;1.63;;;11.10;99.90;;;11.58;100.00;97007.38;5028286;28;20905;-77
2023/03/13 07:57:12;;;;;;;2.13;1.80;;;11.20;99.90;;;11.57;100.00;97003.16;5031888;28;20488;-77
2023/03/13 07:59:43;;;;;;;2.20;1.97;;;11.10;99.90;;;11.61;100.00;97003.53;5027752;28;20463;-77
2023/03/13 08:02:15;;;;;;;3.40;1.63;;;11.20;99.90;;;11.63;100.00;96996.25;5021926;28;20463;-77
2023/03/13 08:04:45;;;;;;;2.40;1.90;;;11.30;99.90;;;11.65;100.00;96998.66;5021032;28;21182;-77
2023/03/13 08:07:15;;;;;;;2.43;2.10;;;11.30;99.90;;;11.67;100.00;96996.59;5021670;28;20471;-77
2023/03/13 08:09:45;;;;;;;3.73;2.20;;;11.30;99.90;;;11.70;100.00;96993.56;5021531;28;20466;-77
2023/03/13 08:12:13;;;;;;;7.00;1.63;;;11.30;99.90;;;11.71;100.00;97003.03;5023137;28;20520;-77
2023/03/13 08:14:44;;;;;;;2.60;2.10;;;11.30;99.90;;;11.75;100.00;97006.81;5022064;28;20466;-77
2023/03/13 08:17:15;;;;;;;4.27;1.63;;;11.30;99.90;;;11.77;100.00;97002.16;5021809;28;20497;-77
2023/03/13 08:19:45;;;;;;;3.53;2.23;;;11.30;99.90;;;11.79;100.00;97007.97;5021173;28;20819;-77
2023/03/13 08:22:15;;;;;;;5.30;1.70;;;11.30;99.90;;;11.82;100.00;97007.53;5021247;28;20462;-77
2023/03/13 08:24:44;;;;;;;5.57;2.20;;;11.40;99.90;;;11.81;100.00;97004.13;5022083;28;20482;-77
2023/03/13 08:27:13;;;;;;;4.00;2.07;;;11.30;99.90;;;11.84;100.00;97003.66;5020385;28;20463;-77
2023/03/13 08:29:44;;;;;;;3.97;1.77;;;11.40;99.90;;;11.88;100.00;97002.22;5022135;28;20559;-77
2023/03/13 08:32:16;;;;;;;3.90;2.60;;;11.50;99.90;;;11.88;100.00;97007.47;5020727;28;20473;-77
2023/03/13 08:34:47;;;;;;;6.67;2.40;;;11.50;99.90;;;11.88;100.00;97004.84;5021646;28;20525;-77
2023/03/13 08:37:17;;;;;;;7.27;3.30;;;11.50;99.90;;;11.93;100.00;96999.75;5028821;28;20462;-77
2023/03/13 08:39:48;;;;;;;2.90;2.33;;;11.50;99.90;;;11.96;100.00;97006.34;5027459;28;20469;-77
2023/03/13 08:42:18;;;;;;;3.20;2.50;;;11.50;99.90;;;11.98;100.00;96997.25;5027040;28;20983;-77
2023/03/13 08:44:50;;;;;;;6.30;2.50;;;11.60;99.90;;;12.00;100.00;97003.09;5027576;28;20810;-77
2023/03/13 08:47:20;;;;;;;3.70;2.13;;;11.60;99.90;;;12.05;100.00;96999.78;5028686;28;20458;-77
2023/03/13 08:49:50;;;;;;;6.13;2.40;;;11.70;99.90;;;12.05;100.00;96999.78;5025583;28;20519;-77
2023/03/13 08:52:19;;;;;;;3.93;2.20;;;11.60;99.90;;;12.04;100.00;96995.59;5024586;28;20573;-77
2023/03/13 08:54:50;;;;;;;6.13;2.20;;;11.70;99.90;;;12.05;100.00;96997.97;5023005;28;20558;-77
2023/03/13 08:57:20;;;;;;;2.60;2.40;;;11.60;99.90;;;12.09;100.00;96998.31;5019703;28;20478;-77
2023/03/13 08:59:52;;;;;;;1.93;1.60;;;11.70;99.90;;;12.02;100.00;97005.47;5020476;28;20985;-77
2023/03/13 09:02:21;;;;;;;4.90;1.83;;;11.60;99.90;;;12.06;100.00;96998.75;5020411;28;20459;-77
2023/03/13 09:04:50;;;;;;;2.30;1.97;;;11.70;99.90;;;12.01;100.00;96999.41;5020276;28;20558;-77
2023/03/13 09:07:20;;;;;;;2.77;2.00;;;11.50;99.90;;;12.06;100.00;96996.94;5020991;28;20494;-77
2023/03/13 09:09:50;;;;;;;2.50;1.70;;;11.60;99.90;;;12.08;100.00;96999.34;5021532;28;21092;-77
2023/03/13 09:12:19;;;;;;;3.23;2.13;;;11.70;99.90;;;12.08;100.00;96996.72;5021020;28;20486;-77
2023/03/13 09:15:00;;;;;;;4.20;2.20;;;11.70;99.90;;;12.08;100.00;96999.34;5020037;28;20462;-77
2023/03/13 09:17:29;;;;;;;3.53;2.07;;;11.60;99.90;;;12.09;100.00;96995.69;5020108;28;20499;-77
2023/03/13 09:20:00;;;;;;;3.00;1.90;;;11.60;99.90;;;12.11;100.00;96999.69;5021280;28;20498;-77
2023/03/13 09:22:30;;;;;;;3.33;2.17;;;11.80;99.90;;;12.08;100.00;96994.09;5018584;28;20557;-77
2023/03/13 09:25:00;;;;;;;2.40;2.00;;;11.60;99.90;;;12.06;100.00;96996.94;5020841;28;20573;-77
2023/03/13 09:27:29;;;;;;;4.93;2.70;;;11.60;99.90;;;12.09;100.00;96983.41;5019559;28;20552;-77
2023/03/13 09:30:00;;;;;;;4.77;2.83;;;11.70;99.90;;;12.11;100.00;96991.06;5022392;28;20999;-77
2023/03/13 09:32:31;;;;;;;5.00;3.40;;;11.70;99.90;;;12.11;100.00;96993.66;5027138;28;21066;-77
2023/03/13 09:35:02;;;;;;;4.60;3.50;;;11.70;99.90;;;12.10;100.00;96981.59;5028037;28;20458;-77
2023/03/13 09:37:33;;;;;;;3.67;2.90;;;11.70;99.90;;;12.08;100.00;96987.03;5031096;28;20485;-77
2023/03/13 09:40:03;;;;;;;6.60;4.03;;;11.70;99.90;;;12.05;100.00;96977.00;5026552;28;20485;-77
2023/03/13 09:42:46;;;;;;;5.70;4.37;;;11.60;99.90;;;12.07;100.00;96979.41;5028858;28;20970;-77
2023/03/13 09:45:30;;;;;;;7.57;4.27;;;11.60;99.90;;;12.05;100.00;96966.53;5026293;28;20992;-77
2023/03/13 09:48:07;;;;;;;5.57;4.40;;;11.60;99.90;;;12.09;100.00;96977.34;5028929;28;20466;-77
2023/03/13 09:50:43;;;;;;;9.50;5.27;;;11.60;99.90;;;12.08;100.00;96966.06;5027453;28;20465;-77
2023/03/13 09:53:24;;;;;;;8.60;5.20;;;11.60;99.90;;;12.08;100.00;96967.88;5027500;28;20478;-77
2023/03/13 09:55:55;;;;;;;6.57;5.57;;;11.60;99.90;;;12.07;100.00;96964.50;5020409;28;20544;-77
2023/03/13 09:58:30;;;;;;;8.90;5.27;;;11.70;99.90;;;12.10;100.00;96963.25;5019156;28;20508;-77
2023/03/13 10:01:06;;;;;;;6.10;5.17;;;11.60;99.90;;;12.09;100.00;96967.69;5019540;28;21009;-77
2023/03/13 10:03:43;;;;;;;5.87;4.77;;;11.70;99.90;;;12.10;100.00;96963.25;5019495;28;20536;-77
2023/03/13 10:06:20;;;;;;;8.73;4.93;;;11.60;99.90;;;12.09;100.00;96959.81;5018909;28;20559;-77
2023/03/13 10:08:51;;;;;;;7.43;4.37;;;11.70;99.90;;;12.12;100.00;96966.41;5019171;28;20585;-77
2023/03/13 10:11:28;;;;;;;6.50;3.20;;;11.70;99.90;;;12.14;100.00;96950.50;5019349;28;20476;-77
2023/03/13 10:14:06;;;;;;;5.80;3.43;;;11.70;99.90;;;12.17;100.00;96961.31;5019737;28;20474;-77
2023/03/13 10:16:44;;;;;;;9.13;3.47;;;11.70;99.90;;;12.18;100.00;96952.44;5018266;28;20493;-77
2023/03/13 10:19:19;;;;;;;6.70;3.20;;;11.80;99.90;;;12.20;100.00;96939.09;5016556;28;20965;-77
2023/03/13 10:21:53;;;;;;;4.97;2.97;;;11.80;99.90;;;12.20;100.00;96952.22;5019227;28;20462;-77
2023/03/13 10:24:33;;;;;;;3.00;2.27;;;11.80;99.90;;;12.18;100.00;96946.41;5019085;28;20498;-77
2023/03/13 10:27:02;;;;;;;3.63;2.73;;;11.70;99.90;;;12.18;100.00;96951.66;5018981;28;20501;-77
2023/03/13 10:29:32;;;;;;;4.40;2.87;;;11.70;99.90;;;12.19;100.00;96951.41;5021605;28;20455;-77
2023/03/13 10:32:06;;;;;;;4.73;2.60;;;11.80;99.90;;;12.19;100.00;96953.22;5021300;28;20843;-77
2023/03/13 10:34:52;;;;;;;8.00;2.67;;;11.80;99.90;;;12.22;100.00;96943.09;5022181;28;20474;-77
2023/03/13 10:37:25;;;;;;;8.70;2.40;;;11.80;99.90;;;12.22;100.00;96937.84;5026262;28;20754;-77